createdAt,value
2022-08-26T00:00:53.012Z,59.80
2022-08-26T00:01:58.113Z,59.83
2022-08-26T00:03:04.111Z,60.23
2022-08-26T00:04:12.047Z,59.94
2022-08-26T00:05:15.982Z,59.96
2022-08-26T00:06:21.255Z,60.03
2022-08-26T00:07:26.333Z,60.00
2022-08-26T00:08:29.947Z,60.29
2022-08-26T00:09:38.916Z,60.32
2022-08-26T00:10:42.733Z,60.48
2022-08-26T00:11:47.200Z,60.75
2022-08-26T00:14:07.001Z,60.65
2022-08-26T00:15:14.998Z,60.72
2022-08-26T00:16:19.965Z,60.91
2022-08-26T00:17:25.912Z,60.76
2022-08-26T00:18:38.799Z,60.94
2022-08-26T00:19:46.178Z,60.78
2022-08-26T00:20:53.056Z,60.51
2022-08-26T00:21:58.481Z,60.56
2022-08-26T00:23:03.273Z,61.00
2022-08-26T00:24:06.712Z,61.14
2022-08-26T00:25:13.980Z,61.13
2022-08-26T00:26:21.436Z,61.13
2022-08-26T00:27:25.817Z,61.25
2022-08-26T00:28:28.979Z,61.06
2022-08-26T00:29:35.546Z,61.02
2022-08-26T00:30:40.251Z,61.05
2022-08-26T00:31:45.961Z,61.01
2022-08-26T00:32:51.416Z,61.25
2022-08-26T00:33:56.894Z,61.51
2022-08-26T00:35:00.592Z,61.57
2022-08-26T00:36:08.562Z,61.57
2022-08-26T00:37:21.428Z,61.58
2022-08-26T00:38:30.676Z,61.61
2022-08-26T00:39:34.768Z,61.52
2022-08-26T00:40:42.658Z,61.60
2022-08-26T00:41:50.730Z,61.94
2022-08-26T00:44:08.667Z,62.06
2022-08-26T00:45:13.537Z,62.04
2022-08-26T00:46:29.746Z,61.95
2022-08-26T00:47:39.735Z,62.14
2022-08-26T00:48:46.270Z,62.17
2022-08-26T00:49:58.472Z,62.36
2022-08-26T00:51:14.784Z,62.30
2022-08-26T00:52:23.318Z,62.16
2022-08-26T00:53:30.116Z,62.26
2022-08-26T00:54:42.254Z,62.41
2022-08-26T00:55:45.858Z,62.52
2022-08-26T00:57:00.812Z,62.22
2022-08-26T00:58:07.329Z,62.22
2022-08-26T00:59:13.626Z,62.35
2022-08-26T01:00:25.774Z,62.41
2022-08-26T01:01:30.658Z,62.25
2022-08-26T01:02:34.071Z,62.09
2022-08-26T01:03:39.126Z,62.22
2022-08-26T01:04:45.777Z,62.49
2022-08-26T01:05:56.717Z,62.48
2022-08-26T01:07:01.126Z,62.48
2022-08-26T01:08:05.606Z,62.62
2022-08-26T01:09:09.467Z,63.04
2022-08-26T01:10:20.496Z,62.91
2022-08-26T01:11:26.393Z,62.66
2022-08-26T01:12:33.795Z,62.63
2022-08-26T01:13:37.889Z,62.41
2022-08-26T01:14:43.652Z,62.29
2022-08-26T01:15:53.119Z,62.32
2022-08-26T01:16:57.286Z,62.43
2022-08-26T01:18:05.831Z,62.52
2022-08-26T01:19:22.264Z,62.61
2022-08-26T01:20:38.922Z,62.53
2022-08-26T01:21:55.105Z,62.14
2022-08-26T01:23:08.002Z,62.35
2022-08-26T01:24:14.060Z,62.79
2022-08-26T01:25:19.218Z,62.72
2022-08-26T01:26:34.800Z,62.67
2022-08-26T01:27:39.759Z,62.59
2022-08-26T01:28:44.461Z,62.75
2022-08-26T01:29:51.670Z,62.70
2022-08-26T01:31:00.569Z,62.58
2022-08-26T01:32:07.679Z,62.60
2022-08-26T01:33:14.881Z,62.84
2022-08-26T01:34:25.781Z,62.75
2022-08-26T01:35:31.907Z,62.73
2022-08-26T01:36:38.189Z,62.49
2022-08-26T01:37:43.366Z,62.37
2022-08-26T01:38:47.008Z,62.49
2022-08-26T01:39:54.457Z,62.52
2022-08-26T01:42:15.318Z,62.79
2022-08-26T01:43:24.667Z,62.79
2022-08-26T01:44:32.103Z,62.90
2022-08-26T01:45:40.762Z,62.91
2022-08-26T01:46:47.172Z,63.13
2022-08-26T01:47:56.550Z,63.03
2022-08-26T01:49:06.581Z,63.04
2022-08-26T01:50:18.061Z,63.33
2022-08-26T01:51:25.082Z,62.93
2022-08-26T01:52:32.185Z,63.13
2022-08-26T01:53:39.071Z,62.98
2022-08-26T01:54:46.336Z,63.05
2022-08-26T01:55:54.812Z,62.86
2022-08-26T01:56:59.449Z,63.06
2022-08-26T01:58:06.269Z,63.13
2022-08-26T01:59:14.349Z,63.09
2022-08-26T02:00:20.396Z,63.05
2022-08-26T02:01:29.129Z,62.84
2022-08-26T02:02:32.591Z,62.77
2022-08-26T02:03:39.318Z,62.93
2022-08-26T02:06:06.535Z,62.95
2022-08-26T02:07:15.672Z,62.70
2022-08-26T02:08:30.855Z,62.77
2022-08-26T02:09:41.401Z,62.93
2022-08-26T02:10:45.237Z,63.01
2022-08-26T02:11:51.215Z,63.10
2022-08-26T02:12:55.031Z,62.79
2022-08-26T02:14:06.360Z,63.03
2022-08-26T02:15:16.694Z,63.17
2022-08-26T02:16:24.453Z,63.09
2022-08-26T02:17:34.927Z,63.02
2022-08-26T02:18:42.107Z,63.12
2022-08-26T02:19:49.658Z,62.92
2022-08-26T02:20:55.398Z,62.89
2022-08-26T02:22:06.076Z,63.03
2022-08-26T02:23:12.911Z,63.22
2022-08-26T02:24:21.690Z,62.95
2022-08-26T02:25:52.652Z,62.87
2022-08-26T02:26:58.609Z,62.80
2022-08-26T02:28:04.487Z,62.81
2022-08-26T02:29:12.828Z,62.69
2022-08-26T02:30:28.371Z,62.60
2022-08-26T02:31:33.069Z,62.90
2022-08-26T02:32:36.982Z,63.21
2022-08-26T02:33:45.627Z,62.87
2022-08-26T02:34:48.212Z,62.92
2022-08-26T02:35:52.056Z,62.80
2022-08-26T02:37:03.690Z,62.95
2022-08-26T02:38:13.743Z,63.23
2022-08-26T02:39:22.032Z,63.12
2022-08-26T02:40:28.836Z,63.02
2022-08-26T02:41:33.395Z,62.87
2022-08-26T02:42:39.149Z,62.74
2022-08-26T02:43:44.169Z,62.96
2022-08-26T02:44:48.989Z,62.96
2022-08-26T02:45:53.172Z,62.72
2022-08-26T02:46:58.089Z,63.16
2022-08-26T02:48:09.313Z,63.03
2022-08-26T02:49:13.503Z,62.83
2022-08-26T02:50:20.799Z,62.91
2022-08-26T02:51:24.997Z,62.94
2022-08-26T02:52:29.232Z,63.02
2022-08-26T02:53:35.497Z,63.14
2022-08-26T02:54:41.878Z,62.87
2022-08-26T02:55:48.552Z,63.21
2022-08-26T02:56:52.778Z,63.45
2022-08-26T02:57:55.706Z,63.36
2022-08-26T02:58:59.970Z,63.18
2022-08-26T03:00:06.635Z,63.26
2022-08-26T03:01:22.463Z,63.17
2022-08-26T03:02:27.180Z,62.98
2022-08-26T03:03:31.437Z,63.19
2022-08-26T03:04:36.505Z,63.19
2022-08-26T03:05:44.350Z,63.03
2022-08-26T03:06:52.754Z,63.19
2022-08-26T03:07:56.225Z,63.10
2022-08-26T03:09:00.342Z,63.21
2022-08-26T03:10:08.351Z,63.41
2022-08-26T03:11:12.367Z,63.19
2022-08-26T03:12:15.559Z,63.20
2022-08-26T03:13:19.794Z,63.27
2022-08-26T03:14:23.655Z,63.09
2022-08-26T03:15:31.472Z,63.25
2022-08-26T03:16:38.906Z,63.36
2022-08-26T03:17:43.839Z,63.46
2022-08-26T03:18:52.388Z,63.14
2022-08-26T03:19:57.218Z,63.23
2022-08-26T03:21:14.043Z,63.15
2022-08-26T03:22:18.765Z,63.18
2022-08-26T03:23:24.864Z,63.25
2022-08-26T03:24:28.826Z,62.88
2022-08-26T03:25:33.338Z,62.82
2022-08-26T03:26:40.663Z,63.03
2022-08-26T03:27:45.755Z,63.19
2022-08-26T03:29:09.450Z,62.76
2022-08-26T03:30:34.211Z,62.77
2022-08-26T03:31:37.757Z,62.79
2022-08-26T03:32:43.753Z,62.61
2022-08-26T03:33:49.582Z,62.57
2022-08-26T03:34:57.441Z,62.44
2022-08-26T03:36:06.907Z,62.21
2022-08-26T03:37:12.834Z,62.47
2022-08-26T03:38:15.503Z,62.49
2022-08-26T03:39:19.348Z,62.43
2022-08-26T03:40:29.037Z,62.57
2022-08-26T03:41:31.371Z,62.20
2022-08-26T03:42:37.153Z,61.99
2022-08-26T03:43:41.278Z,61.86
2022-08-26T03:44:45.135Z,62.09
2022-08-26T03:45:51.795Z,62.14
2022-08-26T03:46:56.601Z,62.02
2022-08-26T03:48:03.141Z,61.90
2022-08-26T03:50:25.353Z,61.35
2022-08-26T03:51:31.196Z,61.33
2022-08-26T03:52:39.709Z,61.08
2022-08-26T03:53:44.088Z,61.20
2022-08-26T03:54:47.976Z,61.23
2022-08-26T03:55:53.302Z,61.37
2022-08-26T03:56:57.554Z,61.13
2022-08-26T03:58:03.401Z,60.96
2022-08-26T03:59:08.575Z,60.83
2022-08-26T04:00:18.418Z,60.69
2022-08-26T04:01:23.319Z,60.66
2022-08-26T04:02:28.846Z,60.38
2022-08-26T04:03:52.890Z,60.61
2022-08-26T04:04:57.153Z,60.58
2022-08-26T04:06:00.662Z,60.17
2022-08-26T04:07:04.553Z,60.01
2022-08-26T04:08:10.116Z,59.80
2022-08-26T04:09:17.099Z,59.74
2022-08-26T04:10:28.983Z,59.62
2022-08-26T04:11:38.293Z,59.75
2022-08-26T04:12:41.894Z,59.66
2022-08-26T04:13:48.249Z,59.54
2022-08-26T04:14:53.245Z,59.25
2022-08-26T04:15:58.220Z,59.47
2022-08-26T04:17:03.388Z,59.54
2022-08-26T04:18:07.470Z,59.60
2022-08-26T04:19:16.237Z,59.61
2022-08-26T04:20:20.464Z,59.46
2022-08-26T04:21:29.452Z,59.42
2022-08-26T04:22:33.414Z,59.22
2022-08-26T04:23:46.878Z,59.23
2022-08-26T04:24:41.883Z,58.98
2022-08-26T04:25:47.130Z,58.82
2022-08-26T04:26:52.202Z,58.75
2022-08-26T04:27:57.780Z,58.79
2022-08-26T04:29:03.384Z,58.84
2022-08-26T04:30:10.518Z,58.65
2022-08-26T04:31:16.830Z,58.40
2022-08-26T04:32:24.028Z,58.18
2022-08-26T04:33:32.259Z,57.71
2022-08-26T04:34:36.091Z,57.52
2022-08-26T04:35:40.600Z,57.71
2022-08-26T04:36:46.273Z,57.82
2022-08-26T04:37:51.575Z,57.50
2022-08-26T04:38:57.428Z,57.50
2022-08-26T04:40:00.933Z,57.66
2022-08-26T04:41:05.424Z,57.40
2022-08-26T04:42:09.147Z,57.51
2022-08-26T04:43:16.701Z,57.76
2022-08-26T04:44:21.797Z,57.46
2022-08-26T04:45:26.973Z,57.47
2022-08-26T04:46:32.805Z,57.24
2022-08-26T04:47:38.625Z,56.99
2022-08-26T04:48:41.837Z,56.83
2022-08-26T04:49:47.359Z,56.96
2022-08-26T04:50:50.820Z,56.82
2022-08-26T04:51:55.018Z,56.06
2022-08-26T04:53:01.602Z,55.97
2022-08-26T04:54:07.907Z,56.12
2022-08-26T04:55:11.853Z,56.44
2022-08-26T04:56:15.497Z,56.18
2022-08-26T04:57:19.912Z,55.92
2022-08-26T04:58:26.825Z,55.95
2022-08-26T04:59:30.129Z,55.58
2022-08-26T05:00:37.870Z,54.99
2022-08-26T05:01:49.454Z,54.21
2022-08-26T05:02:53.908Z,53.59
2022-08-26T05:03:59.774Z,53.28
2022-08-26T05:05:06.050Z,52.90
2022-08-26T05:06:12.828Z,51.01
2022-08-26T05:07:17.679Z,49.92
2022-08-26T05:08:22.274Z,48.33
2022-08-26T05:09:30.643Z,45.09
2022-08-26T05:10:34.637Z,42.31
2022-08-26T05:11:39.001Z,40.89
2022-08-26T05:12:44.366Z,40.66
2022-08-26T05:13:52.604Z,42.05
2022-08-26T05:14:56.799Z,43.71
2022-08-26T05:16:13.213Z,44.23
2022-08-26T05:17:17.496Z,44.85
2022-08-26T05:18:25.313Z,45.40
2022-08-26T05:19:30.719Z,45.71
2022-08-26T05:20:46.935Z,45.23
2022-08-26T05:21:50.733Z,45.14
2022-08-26T05:22:55.734Z,45.33
2022-08-26T05:23:59.619Z,45.93
2022-08-26T05:25:04.208Z,46.16
2022-08-26T05:26:09.342Z,45.71
2022-08-26T05:27:14.724Z,46.00
2022-08-26T05:28:22.737Z,45.00
2022-08-26T05:29:25.772Z,45.14
2022-08-26T05:30:33.076Z,46.11
2022-08-26T05:31:41.109Z,46.07
2022-08-26T05:32:46.022Z,45.74
2022-08-26T05:33:50.405Z,46.05
2022-08-26T05:34:58.584Z,45.86
2022-08-26T05:36:11.863Z,44.81
2022-08-26T05:37:20.461Z,44.39
2022-08-26T05:38:24.662Z,44.42
2022-08-26T05:39:34.020Z,44.12
2022-08-26T05:40:45.662Z,43.92
2022-08-26T05:41:49.421Z,43.47
2022-08-26T05:42:55.453Z,43.82
2022-08-26T05:44:04.288Z,43.51
2022-08-26T05:45:14.577Z,43.22
2022-08-26T05:46:20.257Z,43.12
2022-08-26T05:47:25.489Z,43.55
2022-08-26T05:48:31.756Z,43.47
2022-08-26T05:49:35.536Z,43.06
2022-08-26T05:50:47.650Z,43.28
2022-08-26T05:51:51.425Z,43.54
2022-08-26T05:52:55.172Z,43.24
2022-08-26T05:53:59.241Z,43.19
2022-08-26T05:55:02.986Z,43.28
2022-08-26T05:56:08.953Z,42.75
2022-08-26T05:57:14.507Z,42.66
2022-08-26T05:58:22.692Z,42.62
2022-08-26T05:59:27.481Z,42.29
2022-08-26T06:00:30.706Z,41.81
2022-08-26T06:01:35.691Z,41.33
2022-08-26T06:02:40.050Z,41.21
2022-08-26T06:03:51.511Z,40.52
2022-08-26T06:04:59.029Z,40.26
2022-08-26T06:06:09.742Z,40.00
2022-08-26T06:07:14.471Z,40.06
2022-08-26T06:08:20.512Z,40.20
2022-08-26T06:09:27.272Z,40.22
2022-08-26T06:10:32.919Z,39.87
2022-08-26T06:11:36.119Z,39.31
2022-08-26T06:12:39.096Z,38.52
2022-08-26T06:13:47.018Z,39.27
2022-08-26T06:14:51.175Z,39.21
2022-08-26T06:15:55.713Z,39.27
2022-08-26T06:17:01.730Z,39.25
2022-08-26T06:18:05.758Z,39.51
2022-08-26T06:19:11.618Z,39.60
2022-08-26T06:20:17.411Z,39.54
2022-08-26T06:21:29.352Z,39.71
2022-08-26T06:22:50.547Z,39.55
2022-08-26T06:24:15.988Z,39.00
2022-08-26T06:25:37.106Z,38.45
2022-08-26T06:26:46.705Z,37.75
2022-08-26T06:27:51.952Z,37.75
2022-08-26T06:28:56.639Z,37.66
2022-08-26T06:29:59.103Z,38.04
2022-08-26T06:31:03.952Z,37.85
2022-08-26T06:32:07.092Z,37.46
2022-08-26T06:33:13.759Z,37.51
2022-08-26T06:34:21.500Z,37.36
2022-08-26T06:35:24.490Z,37.33
2022-08-26T06:36:35.063Z,36.99
2022-08-26T06:37:41.498Z,36.79
2022-08-26T06:38:44.501Z,36.61
2022-08-26T06:39:48.336Z,36.77
2022-08-26T06:40:59.763Z,37.14
2022-08-26T06:42:06.174Z,37.06
2022-08-26T06:43:11.117Z,36.73
2022-08-26T06:44:16.335Z,36.73
2022-08-26T06:45:21.304Z,35.79
2022-08-26T06:46:33.126Z,34.96
2022-08-26T06:47:37.236Z,33.75
2022-08-26T06:48:40.313Z,30.63
2022-08-26T06:49:46.889Z,28.42
2022-08-26T06:50:51.924Z,27.08
2022-08-26T06:52:00.002Z,25.36
2022-08-26T06:53:04.217Z,23.94
2022-08-26T06:54:09.059Z,23.86
2022-08-26T06:55:14.743Z,23.01
2022-08-26T06:56:22.879Z,22.51
2022-08-26T06:57:31.687Z,22.06
2022-08-26T06:58:41.061Z,21.56
2022-08-26T06:59:44.944Z,20.82
2022-08-26T07:00:48.026Z,20.34
2022-08-26T07:01:52.060Z,19.96
2022-08-26T07:02:58.456Z,19.87
2022-08-26T07:04:07.921Z,19.01
2022-08-26T07:05:11.018Z,19.00
2022-08-26T07:06:17.760Z,17.95
2022-08-26T07:07:23.079Z,17.56
2022-08-26T07:08:27.594Z,17.31
2022-08-26T07:09:32.114Z,16.82
2022-08-26T07:10:39.860Z,16.65
2022-08-26T07:11:48.335Z,16.73
2022-08-26T07:12:53.344Z,16.42
2022-08-26T07:13:58.382Z,16.04
2022-08-26T07:15:03.033Z,15.76
2022-08-26T07:16:13.211Z,15.39
2022-08-26T07:17:16.542Z,15.49
2022-08-26T07:18:19.261Z,15.43
2022-08-26T07:19:30.814Z,15.81
2022-08-26T07:20:34.372Z,15.46
2022-08-26T07:21:37.430Z,15.57
2022-08-26T07:22:42.511Z,15.65
2022-08-26T07:23:49.721Z,15.64
2022-08-26T07:24:52.686Z,15.97
2022-08-26T07:25:56.156Z,15.69
2022-08-26T07:27:03.933Z,14.97
2022-08-26T07:28:09.502Z,15.15
2022-08-26T07:29:14.494Z,15.63
2022-08-26T07:30:21.762Z,15.28
2022-08-26T07:31:36.076Z,15.02
2022-08-26T07:32:37.621Z,14.87
2022-08-26T07:33:42.243Z,15.00
2022-08-26T07:34:46.445Z,14.86
2022-08-26T07:35:53.184Z,15.58
2022-08-26T07:36:56.486Z,15.26
2022-08-26T07:38:01.608Z,15.10
2022-08-26T07:39:07.143Z,15.21
2022-08-26T07:40:12.215Z,14.89
2022-08-26T07:41:17.826Z,14.75
2022-08-26T07:42:24.401Z,15.09
2022-08-26T07:43:30.516Z,15.16
2022-08-26T07:44:33.967Z,14.84
2022-08-26T07:45:37.064Z,15.07
2022-08-26T07:46:44.153Z,15.77
2022-08-26T07:47:51.130Z,15.64
2022-08-26T07:48:55.199Z,15.33
2022-08-26T07:49:59.328Z,15.41
2022-08-26T07:51:06.086Z,15.10
2022-08-26T07:52:10.305Z,14.94
2022-08-26T07:53:15.618Z,14.72
2022-08-26T07:54:26.900Z,14.46
2022-08-26T07:55:28.297Z,14.15
2022-08-26T07:56:33.072Z,14.44
2022-08-26T07:57:37.822Z,14.42
2022-08-26T07:58:44.959Z,14.92
2022-08-26T07:59:48.578Z,15.36
2022-08-26T08:00:53.494Z,15.74
2022-08-26T08:01:59.167Z,15.95
2022-08-26T08:03:09.417Z,16.13
2022-08-26T08:04:16.389Z,15.97
2022-08-26T08:05:27.188Z,15.50
2022-08-26T08:06:30.959Z,15.45
2022-08-26T08:07:44.177Z,14.99
2022-08-26T08:08:41.491Z,15.28
2022-08-26T08:09:46.391Z,15.50
2022-08-26T08:10:50.051Z,15.26
2022-08-26T08:11:54.030Z,15.82
2022-08-26T08:13:03.583Z,16.01
2022-08-26T08:14:11.825Z,16.30
2022-08-26T08:15:21.978Z,16.28
2022-08-26T08:16:33.469Z,16.48
2022-08-26T08:17:38.385Z,16.33
2022-08-26T08:18:42.077Z,16.53
2022-08-26T08:19:45.748Z,16.62
2022-08-26T08:21:04.791Z,17.01
2022-08-26T08:21:54.953Z,17.34
2022-08-26T08:22:59.884Z,17.34
2022-08-26T08:24:05.429Z,17.04
2022-08-26T08:25:10.865Z,17.66
2022-08-26T08:26:15.237Z,17.55
2022-08-26T08:27:24.466Z,18.03
2022-08-26T08:28:30.754Z,17.95
2022-08-26T08:29:40.355Z,18.08
2022-08-26T08:30:44.161Z,18.04
2022-08-26T08:31:57.025Z,18.04
2022-08-26T08:32:58.899Z,17.71
2022-08-26T08:34:06.575Z,17.98
2022-08-26T08:35:13.217Z,18.40
2022-08-26T08:36:18.481Z,18.14
2022-08-26T08:37:23.394Z,18.47
2022-08-26T08:38:28.249Z,18.43
2022-08-26T08:39:32.911Z,18.56
2022-08-26T08:40:41.312Z,18.21
2022-08-26T08:42:05.787Z,18.43
2022-08-26T08:43:37.799Z,18.54
2022-08-26T08:44:51.888Z,18.62
2022-08-26T08:46:01.982Z,18.45
2022-08-26T08:47:17.639Z,18.13
2022-08-26T08:48:35.458Z,18.33
2022-08-26T08:49:40.248Z,17.83
2022-08-26T08:50:48.745Z,17.91
2022-08-26T08:52:13.532Z,17.34
2022-08-26T08:53:36.514Z,17.99
2022-08-26T08:54:42.833Z,18.25
2022-08-26T08:56:26.418Z,17.15
2022-08-26T08:57:46.932Z,17.00
2022-08-26T08:59:00.680Z,17.21
2022-08-26T09:00:09.991Z,17.22
2022-08-26T09:02:38.082Z,17.42
2022-08-26T09:03:57.919Z,17.19
2022-08-26T09:05:14.947Z,17.47
2022-08-26T09:06:21.949Z,17.27
2022-08-26T09:07:44.373Z,17.08
2022-08-26T09:08:54.725Z,17.16
2022-08-26T09:10:03.338Z,16.99
2022-08-26T09:11:07.031Z,17.03
2022-08-26T09:12:14.177Z,16.92
2022-08-26T09:13:25.404Z,16.60
2022-08-26T09:14:27.280Z,17.05
2022-08-26T09:15:57.952Z,16.99
2022-08-26T09:17:17.636Z,16.88
2022-08-26T09:19:49.858Z,17.14
2022-08-26T09:21:05.546Z,17.20
2022-08-26T09:22:09.870Z,17.55
2022-08-26T09:23:14.411Z,17.56
2022-08-26T09:24:18.253Z,17.19
2022-08-26T09:25:22.316Z,17.11
2022-08-26T09:26:35.524Z,17.56
2022-08-26T09:27:53.533Z,16.91
2022-08-26T09:29:03.627Z,17.81
2022-08-26T09:30:11.499Z,17.86
2022-08-26T09:31:36.470Z,17.49
2022-08-26T09:34:29.660Z,16.75
2022-08-26T09:36:55.161Z,16.92
2022-08-26T09:38:01.651Z,17.36
2022-08-26T09:39:08.475Z,16.81
2022-08-26T09:40:34.828Z,16.41
2022-08-26T09:41:36.606Z,15.91
2022-08-26T09:42:41.167Z,16.69
2022-08-26T09:44:06.047Z,17.14
2022-08-26T09:45:12.511Z,16.71
2022-08-26T09:46:21.271Z,16.19
2022-08-26T09:47:28.950Z,16.41
2022-08-26T09:48:36.630Z,16.39
2022-08-26T09:49:42.168Z,16.52
2022-08-26T09:51:01.394Z,16.24
2022-08-26T09:52:23.539Z,16.50
2022-08-26T09:53:39.647Z,16.01
2022-08-26T09:54:51.334Z,15.69
2022-08-26T09:56:15.807Z,15.96
2022-08-26T09:58:40.336Z,15.87
2022-08-26T09:59:46.224Z,16.29
2022-08-26T10:00:58.518Z,16.43
2022-08-26T10:02:20.393Z,16.85
2022-08-26T10:03:31.623Z,16.42
2022-08-26T10:04:33.878Z,16.28
2022-08-26T10:05:47.175Z,17.49
2022-08-26T10:07:09.313Z,17.36
2022-08-26T10:08:23.896Z,17.53
2022-08-26T10:09:29.824Z,18.17
2022-08-26T10:10:45.751Z,17.65
2022-08-26T10:11:56.604Z,17.53
2022-08-26T10:13:07.663Z,17.86
2022-08-26T10:14:30.883Z,18.34
2022-08-26T10:15:41.312Z,17.99
2022-08-26T10:16:54.890Z,18.17
2022-08-26T10:18:06.911Z,18.16
2022-08-26T10:19:17.741Z,18.30
2022-08-26T10:20:25.541Z,18.37
2022-08-26T10:21:33.648Z,18.50
2022-08-26T10:22:54.866Z,18.85
2022-08-26T10:24:02.317Z,19.80
2022-08-26T10:25:09.239Z,19.23
2022-08-26T10:26:17.009Z,19.41
2022-08-26T10:27:25.551Z,19.03
2022-08-26T10:28:51.040Z,18.80
2022-08-26T10:30:13.143Z,18.60
2022-08-26T10:31:38.161Z,18.05
2022-08-26T10:32:46.433Z,18.73
2022-08-26T10:33:52.529Z,19.24
2022-08-26T10:35:00.079Z,18.37
2022-08-26T10:36:08.708Z,19.12
2022-08-26T10:37:22.934Z,19.00
2022-08-26T10:38:38.377Z,19.33
2022-08-26T10:39:58.544Z,18.83
2022-08-26T10:41:18.229Z,18.94
2022-08-26T10:42:23.794Z,19.22
2022-08-26T10:43:31.361Z,19.62
2022-08-26T10:44:40.222Z,19.75
2022-08-26T10:45:51.002Z,20.15
2022-08-26T10:47:01.144Z,20.20
2022-08-26T10:49:18.947Z,19.63
2022-08-26T10:50:29.796Z,19.67
2022-08-26T10:51:38.985Z,20.04
2022-08-26T10:52:48.952Z,20.14
2022-08-26T10:54:03.738Z,19.68
2022-08-26T10:55:11.143Z,20.57
2022-08-26T10:56:41.372Z,20.08
2022-08-26T10:57:55.225Z,19.76
2022-08-26T10:59:17.435Z,19.51
2022-08-26T11:00:43.886Z,19.50
2022-08-26T11:02:03.945Z,17.63
2022-08-26T11:03:31.025Z,17.91
2022-08-26T11:04:54.139Z,17.34
2022-08-26T11:06:20.703Z,17.08
2022-08-26T11:07:39.802Z,17.53
2022-08-26T11:09:02.627Z,17.02
2022-08-26T11:10:17.791Z,17.06
2022-08-26T11:11:43.094Z,16.70
2022-08-26T11:12:53.472Z,16.42
2022-08-26T11:13:58.220Z,16.33
2022-08-26T11:15:02.974Z,16.12
2022-08-26T11:16:12.296Z,16.74
2022-08-26T11:17:20.113Z,16.81
2022-08-26T11:18:39.480Z,16.75
2022-08-26T11:20:01.954Z,16.93
2022-08-26T11:21:05.550Z,17.03
2022-08-26T11:22:33.246Z,18.43
2022-08-26T11:23:41.773Z,18.47
2022-08-26T11:24:47.990Z,18.59
2022-08-26T11:26:01.420Z,18.31
2022-08-26T11:27:09.262Z,18.16
2022-08-26T11:28:17.724Z,17.98
2022-08-26T11:29:43.056Z,18.32
2022-08-26T11:30:56.806Z,18.29
2022-08-26T11:31:58.075Z,18.18
2022-08-26T11:33:01.971Z,18.68
2022-08-26T11:34:10.777Z,17.93
2022-08-26T11:35:20.694Z,18.42
2022-08-26T11:37:51.776Z,18.85
2022-08-26T11:38:55.238Z,19.00
2022-08-26T11:39:59.094Z,19.31
2022-08-26T11:41:13.256Z,18.89
2022-08-26T11:42:33.013Z,18.59
2022-08-26T11:43:38.951Z,18.83
2022-08-26T11:44:49.433Z,18.84
2022-08-26T11:46:01.452Z,19.11
2022-08-26T11:47:11.402Z,18.54
2022-08-26T11:48:23.861Z,18.22
2022-08-26T11:49:29.601Z,17.91
2022-08-26T11:50:33.937Z,18.25
2022-08-26T11:51:40.845Z,18.31
2022-08-26T11:53:06.122Z,17.41
2022-08-26T11:54:17.662Z,17.74
2022-08-26T11:55:27.816Z,17.60
2022-08-26T11:56:35.019Z,18.20
2022-08-26T11:57:55.566Z,17.85
2022-08-26T11:59:01.665Z,18.16
2022-08-26T12:00:13.560Z,18.46
2022-08-26T12:02:42.604Z,18.23
2022-08-26T12:03:50.198Z,18.30
2022-08-26T12:04:55.439Z,18.85
2022-08-26T12:06:00.082Z,19.23
2022-08-26T12:07:05.573Z,18.75
2022-08-26T12:08:15.560Z,19.08
2022-08-26T12:10:38.789Z,19.45
2022-08-26T12:11:42.609Z,19.66
2022-08-26T12:12:52.402Z,19.43
2022-08-26T12:13:59.439Z,20.06
2022-08-26T12:15:19.014Z,20.03
2022-08-26T12:16:29.899Z,19.71
2022-08-26T12:17:33.273Z,19.74
2022-08-26T12:18:44.794Z,20.12
2022-08-26T12:19:51.183Z,19.64
2022-08-26T12:20:58.083Z,19.94
2022-08-26T12:22:05.435Z,20.00
2022-08-26T12:23:09.586Z,19.62
2022-08-26T12:24:17.392Z,19.09
2022-08-26T12:25:25.942Z,19.64
2022-08-26T12:26:34.677Z,18.71
2022-08-26T12:27:44.839Z,18.97
2022-08-26T12:28:52.441Z,19.33
2022-08-26T12:30:14.059Z,19.46
2022-08-26T12:31:31.669Z,19.48
2022-08-26T12:32:57.290Z,18.98
2022-08-26T12:33:51.238Z,18.84
2022-08-26T12:34:57.003Z,19.16
2022-08-26T12:36:02.986Z,19.34
2022-08-26T12:37:10.669Z,19.47
2022-08-26T12:38:13.661Z,19.57
2022-08-26T12:39:30.265Z,19.29
2022-08-26T12:40:39.644Z,19.31
2022-08-26T12:41:46.536Z,19.73
2022-08-26T12:42:50.107Z,19.31
2022-08-26T12:43:58.568Z,19.43
2022-08-26T12:45:07.305Z,20.14
2022-08-26T12:46:17.176Z,20.12
2022-08-26T12:47:42.752Z,20.80
2022-08-26T12:48:42.934Z,20.02
2022-08-26T12:49:46.172Z,20.27
2022-08-26T12:50:53.845Z,20.53
2022-08-26T12:51:57.661Z,20.97
2022-08-26T12:53:04.809Z,20.56
2022-08-26T12:54:13.101Z,21.05
2022-08-26T12:55:30.704Z,20.72
2022-08-26T12:56:41.239Z,20.57
2022-08-26T12:57:50.124Z,20.57
2022-08-26T12:59:13.469Z,20.46
2022-08-26T13:00:28.529Z,20.46
2022-08-26T13:01:44.466Z,20.49
2022-08-26T13:02:47.903Z,20.43
2022-08-26T13:03:51.573Z,20.19
2022-08-26T13:05:00.847Z,20.84
2022-08-26T13:06:20.978Z,20.64
2022-08-26T13:07:28.431Z,20.64
2022-08-26T13:09:44.986Z,20.42
2022-08-26T13:10:52.639Z,20.54
2022-08-26T13:11:58.924Z,20.64
2022-08-26T13:13:01.647Z,20.56
2022-08-26T13:14:18.320Z,20.49
2022-08-26T13:15:19.908Z,20.57
2022-08-26T13:16:28.847Z,20.41
2022-08-26T13:17:35.034Z,20.33
2022-08-26T13:18:40.965Z,20.62
2022-08-26T13:19:44.553Z,20.53
2022-08-26T13:20:47.645Z,19.88
2022-08-26T13:21:55.229Z,20.05
2022-08-26T13:23:01.139Z,20.04
2022-08-26T13:24:07.630Z,20.08
2022-08-26T13:25:10.618Z,20.10
2022-08-26T13:26:16.255Z,20.11
2022-08-26T13:27:21.759Z,20.33
2022-08-26T13:28:28.505Z,20.42
2022-08-26T13:29:31.906Z,20.35
2022-08-26T13:30:37.446Z,20.35
2022-08-26T13:31:45.331Z,20.26
2022-08-26T13:32:50.605Z,20.31
2022-08-26T13:33:55.948Z,20.14
2022-08-26T13:35:05.790Z,20.59
2022-08-26T13:36:06.796Z,20.01
2022-08-26T13:37:12.129Z,19.56
2022-08-26T13:38:22.322Z,20.76
2022-08-26T13:39:25.859Z,19.76
2022-08-26T13:40:34.317Z,20.00
2022-08-26T13:41:38.886Z,19.94
2022-08-26T13:42:49.525Z,20.02
2022-08-26T13:43:52.618Z,19.81
2022-08-26T13:44:57.548Z,19.42
2022-08-26T13:46:04.207Z,19.93
2022-08-26T13:47:08.267Z,19.54
2022-08-26T13:48:20.296Z,19.98
2022-08-26T13:49:22.417Z,20.14
2022-08-26T13:50:28.293Z,20.10
2022-08-26T13:51:33.008Z,19.98
2022-08-26T13:52:38.244Z,19.98
2022-08-26T13:53:41.728Z,19.95
2022-08-26T13:54:46.379Z,20.08
2022-08-26T13:55:52.982Z,19.78
2022-08-26T13:56:55.970Z,19.61
2022-08-26T13:58:02.679Z,19.61
2022-08-26T13:59:05.795Z,19.96
2022-08-26T14:00:13.381Z,19.86
2022-08-26T14:01:18.588Z,20.09
2022-08-26T14:02:25.403Z,19.54
2022-08-26T14:03:29.511Z,19.79
2022-08-26T14:04:33.700Z,19.50
2022-08-26T14:05:37.756Z,19.22
2022-08-26T14:06:41.110Z,19.17
2022-08-26T14:07:43.820Z,19.37
2022-08-26T14:08:50.383Z,19.88
2022-08-26T14:09:54.694Z,20.14
2022-08-26T14:10:58.893Z,19.67
2022-08-26T14:12:03.816Z,19.25
2022-08-26T14:13:09.172Z,19.53
2022-08-26T14:14:11.866Z,19.92
2022-08-26T14:15:16.683Z,19.49
2022-08-26T14:16:24.738Z,19.36
2022-08-26T14:17:30.720Z,19.32
2022-08-26T14:18:42.559Z,19.58
2022-08-26T14:19:48.842Z,19.37
2022-08-26T14:22:06.816Z,19.38
2022-08-26T14:23:13.955Z,20.03
2022-08-26T14:24:16.865Z,18.99
2022-08-26T14:25:25.752Z,19.48
2022-08-26T14:26:30.593Z,19.56
2022-08-26T14:27:37.465Z,19.39
2022-08-26T14:28:42.613Z,19.48
2022-08-26T14:29:47.608Z,19.87
2022-08-26T14:30:56.624Z,19.63
2022-08-26T14:32:05.303Z,19.57
2022-08-26T14:33:16.944Z,19.86
2022-08-26T14:34:20.657Z,20.00
2022-08-26T14:35:28.865Z,19.86
2022-08-26T14:36:33.893Z,19.94
2022-08-26T14:37:40.603Z,20.19
2022-08-26T14:38:43.476Z,20.26
2022-08-26T14:41:04.311Z,20.60
2022-08-26T14:42:10.640Z,20.48
2022-08-26T14:43:17.054Z,20.40
2022-08-26T14:44:21.111Z,20.31
2022-08-26T14:45:30.134Z,20.52
2022-08-26T14:46:39.115Z,20.45
2022-08-26T14:47:42.143Z,20.60
2022-08-26T14:48:46.442Z,20.59
2022-08-26T14:49:52.627Z,20.66
2022-08-26T14:50:56.303Z,20.83
2022-08-26T14:52:00.551Z,20.96
2022-08-26T14:53:22.133Z,21.24
2022-08-26T14:54:28.186Z,21.44
2022-08-26T14:55:36.375Z,21.41
2022-08-26T14:57:03.391Z,21.57
2022-08-26T14:58:07.426Z,21.41
2022-08-26T14:59:13.511Z,21.70